Date,TemperatureHighF,TemperatureAvgF,TemperatureLowF,DewpointHighF,DewpointAvgF,DewpointLowF,HumidityHigh,HumidityAvg,HumidityLow,PressureMaxIn,PressureMinIn,WindSpeedMaxMPH,WindSpeedAvgMPH,GustSpeedMaxMPH,PrecipitationSumIn
2013-3-1,25.7,21.3,12.6,22.5,17.4,9.7,98,85,76,30.32,30.17,25,6,25,0.00
2013-3-2,24.4,14.2,4.5,15.8,9.2,1.6,90,80,66,30.31,30.22,15,4,16,0.00
2013-3-3,28.8,13.4,1.8,14.5,7.2,-1.1,90,77,53,30.24,30.16,9,-2,9,0.00
2013-3-4,30.2,19.3,3.0,24.1,14.8,-0.2,90,83,70,30.21,30.13,14,5,15,0.00
2013-3-5,29.7,26.7,23.9,25.5,23.7,22.3,94,88,75,30.13,29.95,26,6,28,0.00
2013-3-6,32.2,28.4,25.3,29.1,24.9,21.2,92,87,80,30.35,30.13,20,6,23,0.00
2013-3-7,31.3,21.3,8.8,22.1,16.3,6.3,91,81,68,30.49,30.35,7,2,7,0.00
2013-3-8,36.5,25.7,9.0,28.8,21.2,6.6,93,83,72,30.52,30.32,15,3,15,0.00
2013-3-9,33.4,31.1,28.0,27.7,25.7,23.9,84,80,78,30.33,30.21,13,4,15,0.00
2013-3-10,34.0,33.6,33.4,32.9,32.6,32.4,96,96,96,29.68,29.66,18,12,18,1.02
2013-3-11,33.8,32.3,28.0,33.3,31.2,24.6,98,96,87,29.76,29.56,16,5,18,0.07
2013-3-12,29.7,27.3,23.0,25.7,22.8,16.3,94,83,71,30.04,29.76,23,8,26,0.00
2013-3-13,30.6,23.4,18.0,16.3,14.5,11.8,92,70,48,30.34,30.05,14,3,20,0.00
2013-3-14,32.0,24.7,14.5,25.9,18.9,10.0,92,78,65,30.35,30.09,14,5,14,0.00
2013-3-15,33.6,29.8,26.6,32.2,28.0,24.8,95,93,87,30.09,29.89,17,6,18,0.03
2013-3-16,28.9,23.6,18.7,25.7,20.0,15.3,95,86,73,30.18,29.86,21,8,22,0.00
2013-3-17,27.0,19.4,12.9,18.1,12.5,6.4,87,74,65,30.34,30.08,14,7,15,0.00
2013-3-18,31.3,26.2,15.1,29.8,23.5,12.0,95,90,83,30.08,29.59,28,8,29,0.13
2013-3-19,26.1,19.8,13.8,16.0,12.0,8.8,87,72,57,30.07,29.71,29,14,31,0.00
2013-3-20,20.1,13.6,7.9,8.8,4.6,-0.4,72,67,59,30.11,30.06,22,6,23,0.00
2013-3-21,26.8,18.4,8.2,16.7,10.1,2.3,84,70,60,30.11,30.05,13,3,14,0.00
2013-3-22,34.3,20.3,6.6,21.9,13.9,3.2,89,77,58,30.14,30.07,6,1,8,0.00
2013-3-23,31.5,20.8,13.5,22.8,17.0,10.8,92,85,68,30.20,30.13,6,1,6,0.00
2013-3-24,31.1,28.6,25.0,28.8,25.4,21.7,94,88,77,30.13,29.84,24,10,27,0.00
2013-3-25,33.6,28.9,22.3,27.7,24.0,19.0,88,82,76,30.14,29.87,21,8,23,0.00
2013-3-26,39.7,34.6,29.3,30.6,27.6,24.4,83,76,67,30.27,30.14,9,3,11,0.00
2013-3-27,41.2,34.8,26.8,27.9,25.2,22.1,84,69,50,30.34,30.27,9,2,10,0.00
2013-3-28,42.6,32.5,22.5,28.0,23.9,19.4,92,72,50,30.38,30.31,8,-2,10,0.00
2013-3-29,47.3,34.6,23.4,30.2,25.0,20.5,90,70,41,30.37,30.25,5,2,6,0.00
2013-3-30,48.6,39.2,30.0,40.5,32.3,24.3,98,77,64,30.25,29.82,20,8,22,0.03
2013-3-31,44.2,37.6,30.9,39.0,33.4,22.1,95,85,63,29.93,29.71,21,7,22,0.00